GCHI/VDE METAR and TAF weather

Enter ICAO airport designator
Station Type Date Time Source
GCHI METAR 2019/04/21 22:30 UTC NOAA

GCHI 212230Z AUTO 01014KT 340V050 9999 BKN019 BKN024 19/16 Q1017


Station Type Date Time Source
GCHI Decoded METAR 2019/04/21 22:30 UTC NOAA

Hierro / Aeropuerto, Spain (GCHI) 27-49N 017-53W 32M
Apr 21, 2019 - 06:30 PM EDT / 2019.04.21 2230 UTC
Wind: from the N (010 degrees) at 16 MPH (14 KT) (direction variable):0
Visibility: greater than 7 mile(s):0
Sky conditions: mostly cloudy
Temperature: 66 F (19 C)
Dew Point: 60 F (16 C)
Relative Humidity: 82%
Pressure (altimeter): 30.03 in. Hg (1017 hPa)
ob: GCHI 212230Z AUTO 01014KT 340V050 9999 BKN019 BKN024 19/16 Q1017
cycle: 22

Station Type Date Time Source
GCHI TAF 2019/04/21 21:00 UTC NOAA

TAF GCHI 212000Z 2121/2221 34012KT 9999 SCT030 TX23/2214Z TN18/2205Z PROB30
TEMPO 2123/2207 31015G25KT PROB30
TEMPO 2215/2221 30018G28KT

Example: see airport list